sensor_id;sensor_type;location;lat;lon;timestamp;P1;durP1;ratioP1;P2;durP2;ratioP2
5674;SDS011;2860;54.284;10.158;2023-03-01T00:01:40;51.03;;;23.30;;
5674;SDS011;2860;54.284;10.158;2023-03-01T00:04:06;48.70;;;23.48;;
5674;SDS011;2860;54.284;10.158;2023-03-01T00:06:31;44.88;;;24.05;;
5674;SDS011;2860;54.284;10.158;2023-03-01T00:08:57;41.83;;;23.80;;
5674;SDS011;2860;54.284;10.158;2023-03-01T00:11:23;34.97;;;22.33;;
5674;SDS011;2860;54.284;10.158;2023-03-01T00:13:51;32.30;;;18.75;;
5674;SDS011;2860;54.284;10.158;2023-03-01T00:16:37;38.15;;;21.20;;
5674;SDS011;2860;54.284;10.158;2023-03-01T00:19:05;31.80;;;20.33;;
5674;SDS011;2860;54.284;10.158;2023-03-01T00:21:32;36.83;;;20.38;;
5674;SDS011;2860;54.284;10.158;2023-03-01T00:23:58;40.83;;;22.27;;
5674;SDS011;2860;54.284;10.158;2023-03-01T00:26:24;42.83;;;23.25;;
5674;SDS011;2860;54.284;10.158;2023-03-01T00:28:51;51.70;;;25.05;;
5674;SDS011;2860;54.284;10.158;2023-03-01T00:31:21;71.15;;;25.45;;
5674;SDS011;2860;54.284;10.158;2023-03-01T00:33:54;116.13;;;25.77;;
5674;SDS011;2860;54.284;10.158;2023-03-01T00:36:24;138.63;;;27.67;;
5674;SDS011;2860;54.284;10.158;2023-03-01T00:38:52;118.20;;;28.48;;
5674;SDS011;2860;54.284;10.158;2023-03-01T00:41:18;138.68;;;28.33;;
5674;SDS011;2860;54.284;10.158;2023-03-01T00:43:45;101.35;;;25.92;;
5674;SDS011;2860;54.284;10.158;2023-03-01T00:46:14;199.38;;;28.02;;
5674;SDS011;2860;54.284;10.158;2023-03-01T00:48:41;138.93;;;28.92;;
5674;SDS011;2860;54.284;10.158;2023-03-01T00:51:07;126.07;;;26.88;;
5674;SDS011;2860;54.284;10.158;2023-03-01T00:53:35;69.43;;;24.35;;
5674;SDS011;2860;54.284;10.158;2023-03-01T00:56:01;66.05;;;23.67;;
5674;SDS011;2860;54.284;10.158;2023-03-01T00:58:27;108.80;;;26.10;;
5674;SDS011;2860;54.284;10.158;2023-03-01T01:00:52;62.65;;;22.85;;
5674;SDS011;2860;54.284;10.158;2023-03-01T01:03:18;145.50;;;30.40;;
5674;SDS011;2860;54.284;10.158;2023-03-01T01:05:44;107.28;;;23.52;;
5674;SDS011;2860;54.284;10.158;2023-03-01T01:08:10;86.88;;;25.75;;
5674;SDS011;2860;54.284;10.158;2023-03-01T01:10:35;79.88;;;23.83;;
5674;SDS011;2860;54.284;10.158;2023-03-01T01:13:01;42.35;;;24.08;;
5674;SDS011;2860;54.284;10.158;2023-03-01T01:15:27;92.45;;;26.13;;
5674;SDS011;2860;54.284;10.158;2023-03-01T01:17:52;45.90;;;23.52;;
5674;SDS011;2860;54.284;10.158;2023-03-01T01:20:18;73.05;;;23.08;;
5674;SDS011;2860;54.284;10.158;2023-03-01T01:22:43;48.00;;;23.10;;
5674;SDS011;2860;54.284;10.158;2023-03-01T01:25:09;48.60;;;24.98;;
5674;SDS011;2860;54.284;10.158;2023-03-01T01:27:35;72.40;;;23.40;;
5674;SDS011;2860;54.284;10.158;2023-03-01T01:30:01;74.63;;;23.15;;
5674;SDS011;2860;54.284;10.158;2023-03-01T01:32:27;42.78;;;22.23;;
5674;SDS011;2860;54.284;10.158;2023-03-01T01:34:52;42.42;;;22.48;;
5674;SDS011;2860;54.284;10.158;2023-03-01T01:37:17;47.80;;;22.90;;
5674;SDS011;2860;54.284;10.158;2023-03-01T01:39:43;52.20;;;21.33;;
5674;SDS011;2860;54.284;10.158;2023-03-01T01:42:17;38.95;;;20.65;;
5674;SDS011;2860;54.284;10.158;2023-03-01T01:44:46;38.30;;;21.10;;
5674;SDS011;2860;54.284;10.158;2023-03-01T01:47:13;31.90;;;20.95;;
5674;SDS011;2860;54.284;10.158;2023-03-01T01:49:55;30.95;;;19.92;;
5674;SDS011;2860;54.284;10.158;2023-03-01T01:52:40;47.28;;;19.60;;
5674;SDS011;2860;54.284;10.158;2023-03-01T01:55:07;34.70;;;20.45;;
5674;SDS011;2860;54.284;10.158;2023-03-01T01:57:55;32.05;;;21.02;;
5674;SDS011;2860;54.284;10.158;2023-03-01T02:00:25;32.55;;;20.90;;
5674;SDS011;2860;54.284;10.158;2023-03-01T02:02:57;32.03;;;19.48;;
5674;SDS011;2860;54.284;10.158;2023-03-01T02:05:26;51.63;;;20.80;;
5674;SDS011;2860;54.284;10.158;2023-03-01T02:07:53;31.98;;;19.67;;
5674;SDS011;2860;54.284;10.158;2023-03-01T02:10:21;40.75;;;19.38;;
5674;SDS011;2860;54.284;10.158;2023-03-01T02:12:48;35.95;;;18.98;;
5674;SDS011;2860;54.284;10.158;2023-03-01T02:15:14;31.38;;;19.67;;
5674;SDS011;2860;54.284;10.158;2023-03-01T02:17:40;37.40;;;20.33;;
5674;SDS011;2860;54.284;10.158;2023-03-01T02:22:55;36.42;;;20.38;;
5674;SDS011;2860;54.284;10.158;2023-03-01T02:25:30;42.65;;;18.63;;
5674;SDS011;2860;54.284;10.158;2023-03-01T02:30:45;47.85;;;20.30;;
5674;SDS011;2860;54.284;10.158;2023-03-01T02:33:31;127.13;;;18.92;;
5674;SDS011;2860;54.284;10.158;2023-03-01T02:36:01;119.72;;;18.83;;
5674;SDS011;2860;54.284;10.158;2023-03-01T02:38:32;101.28;;;20.25;;
5674;SDS011;2860;54.284;10.158;2023-03-01T02:40:58;39.97;;;16.48;;
5674;SDS011;2860;54.284;10.158;2023-03-01T02:43:27;82.82;;;19.08;;
5674;SDS011;2860;54.284;10.158;2023-03-01T02:45:57;108.00;;;20.02;;
5674;SDS011;2860;54.284;10.158;2023-03-01T02:48:37;58.60;;;19.88;;
5674;SDS011;2860;54.284;10.158;2023-03-01T02:51:18;66.35;;;17.70;;
5674;SDS011;2860;54.284;10.158;2023-03-01T02:54:25;110.50;;;17.90;;
5674;SDS011;2860;54.284;10.158;2023-03-01T02:57:01;75.78;;;18.17;;
5674;SDS011;2860;54.284;10.158;2023-03-01T02:59:29;129.20;;;19.27;;
5674;SDS011;2860;54.284;10.158;2023-03-01T03:01:58;64.30;;;17.00;;
5674;SDS011;2860;54.284;10.158;2023-03-01T03:04:25;98.57;;;17.63;;
5674;SDS011;2860;54.284;10.158;2023-03-01T03:06:51;74.20;;;18.80;;
5674;SDS011;2860;54.284;10.158;2023-03-01T03:09:17;106.18;;;18.00;;
5674;SDS011;2860;54.284;10.158;2023-03-01T03:11:43;98.65;;;16.73;;
5674;SDS011;2860;54.284;10.158;2023-03-01T03:14:12;69.45;;;17.02;;
5674;SDS011;2860;54.284;10.158;2023-03-01T03:16:43;114.00;;;16.83;;
5674;SDS011;2860;54.284;10.158;2023-03-01T03:19:11;65.68;;;16.33;;
5674;SDS011;2860;54.284;10.158;2023-03-01T03:21:37;179.48;;;18.63;;
5674;SDS011;2860;54.284;10.158;2023-03-01T03:24:03;199.23;;;16.92;;
5674;SDS011;2860;54.284;10.158;2023-03-01T03:26:29;146.75;;;16.92;;
5674;SDS011;2860;54.284;10.158;2023-03-01T03:28:54;146.85;;;17.27;;
5674;SDS011;2860;54.284;10.158;2023-03-01T03:31:20;154.40;;;17.75;;
5674;SDS011;2860;54.284;10.158;2023-03-01T03:33:45;71.00;;;14.73;;
5674;SDS011;2860;54.284;10.158;2023-03-01T03:36:17;160.93;;;17.83;;
5674;SDS011;2860;54.284;10.158;2023-03-01T03:38:46;81.03;;;16.70;;
5674;SDS011;2860;54.284;10.158;2023-03-01T03:41:11;46.38;;;16.15;;
5674;SDS011;2860;54.284;10.158;2023-03-01T03:43:38;76.38;;;16.45;;
5674;SDS011;2860;54.284;10.158;2023-03-01T03:46:05;74.45;;;16.02;;
5674;SDS011;2860;54.284;10.158;2023-03-01T03:48:32;36.47;;;16.70;;
5674;SDS011;2860;54.284;10.158;2023-03-01T03:50:59;55.22;;;16.27;;
5674;SDS011;2860;54.284;10.158;2023-03-01T03:53:27;125.75;;;16.58;;
5674;SDS011;2860;54.284;10.158;2023-03-01T03:55:54;117.03;;;17.70;;
5674;SDS011;2860;54.284;10.158;2023-03-01T03:58:21;31.80;;;15.75;;
5674;SDS011;2860;54.284;10.158;2023-03-01T04:00:49;110.57;;;16.75;;
5674;SDS011;2860;54.284;10.158;2023-03-01T04:03:16;98.63;;;16.60;;
5674;SDS011;2860;54.284;10.158;2023-03-01T04:05:43;88.50;;;17.77;;
5674;SDS011;2860;54.284;10.158;2023-03-01T04:08:09;153.73;;;16.83;;
5674;SDS011;2860;54.284;10.158;2023-03-01T04:10:36;109.05;;;16.10;;
5674;SDS011;2860;54.284;10.158;2023-03-01T04:13:08;112.43;;;16.85;;
5674;SDS011;2860;54.284;10.158;2023-03-01T04:15:36;127.30;;;16.08;;
5674;SDS011;2860;54.284;10.158;2023-03-01T04:18:02;72.70;;;14.20;;
5674;SDS011;2860;54.284;10.158;2023-03-01T04:20:29;127.93;;;16.23;;
5674;SDS011;2860;54.284;10.158;2023-03-01T04:22:59;35.17;;;15.00;;
5674;SDS011;2860;54.284;10.158;2023-03-01T04:25:39;92.07;;;15.15;;
5674;SDS011;2860;54.284;10.158;2023-03-01T04:28:06;127.80;;;16.25;;
5674;SDS011;2860;54.284;10.158;2023-03-01T04:30:32;144.25;;;15.73;;
5674;SDS011;2860;54.284;10.158;2023-03-01T04:33:01;54.65;;;15.75;;
5674;SDS011;2860;54.284;10.158;2023-03-01T04:35:28;83.88;;;13.45;;
5674;SDS011;2860;54.284;10.158;2023-03-01T04:37:54;54.00;;;14.13;;
5674;SDS011;2860;54.284;10.158;2023-03-01T04:40:19;87.50;;;14.98;;
5674;SDS011;2860;54.284;10.158;2023-03-01T04:42:46;44.65;;;14.65;;
5674;SDS011;2860;54.284;10.158;2023-03-01T04:45:12;91.78;;;15.68;;
5674;SDS011;2860;54.284;10.158;2023-03-01T04:47:38;82.43;;;14.77;;
5674;SDS011;2860;54.284;10.158;2023-03-01T04:50:09;121.90;;;15.63;;
5674;SDS011;2860;54.284;10.158;2023-03-01T04:52:36;98.82;;;16.60;;
5674;SDS011;2860;54.284;10.158;2023-03-01T04:55:02;49.08;;;14.18;;
5674;SDS011;2860;54.284;10.158;2023-03-01T04:57:28;66.20;;;14.57;;
5674;SDS011;2860;54.284;10.158;2023-03-01T04:59:54;71.25;;;14.43;;
5674;SDS011;2860;54.284;10.158;2023-03-01T05:02:19;39.90;;;14.57;;
5674;SDS011;2860;54.284;10.158;2023-03-01T05:04:45;73.93;;;15.00;;
5674;SDS011;2860;54.284;10.158;2023-03-01T05:07:10;55.10;;;15.40;;
5674;SDS011;2860;54.284;10.158;2023-03-01T05:09:37;72.53;;;15.32;;
5674;SDS011;2860;54.284;10.158;2023-03-01T05:12:03;48.40;;;14.80;;
5674;SDS011;2860;54.284;10.158;2023-03-01T05:14:29;59.92;;;13.73;;
5674;SDS011;2860;54.284;10.158;2023-03-01T05:16:55;108.53;;;16.70;;
5674;SDS011;2860;54.284;10.158;2023-03-01T05:19:28;43.70;;;15.75;;
5674;SDS011;2860;54.284;10.158;2023-03-01T05:21:55;78.75;;;14.15;;
5674;SDS011;2860;54.284;10.158;2023-03-01T05:24:28;90.70;;;15.32;;
5674;SDS011;2860;54.284;10.158;2023-03-01T05:26:55;79.90;;;15.18;;
5674;SDS011;2860;54.284;10.158;2023-03-01T05:29:21;54.60;;;14.30;;
5674;SDS011;2860;54.284;10.158;2023-03-01T05:31:56;99.60;;;15.70;;
5674;SDS011;2860;54.284;10.158;2023-03-01T05:34:33;76.05;;;17.08;;
5674;SDS011;2860;54.284;10.158;2023-03-01T05:37:00;40.50;;;12.38;;
5674;SDS011;2860;54.284;10.158;2023-03-01T05:39:27;135.80;;;17.42;;
5674;SDS011;2860;54.284;10.158;2023-03-01T05:41:55;108.50;;;15.30;;
5674;SDS011;2860;54.284;10.158;2023-03-01T05:44:22;132.95;;;15.32;;
5674;SDS011;2860;54.284;10.158;2023-03-01T05:46:48;113.63;;;14.52;;
5674;SDS011;2860;54.284;10.158;2023-03-01T05:49:15;42.15;;;14.50;;
5674;SDS011;2860;54.284;10.158;2023-03-01T05:51:41;184.93;;;15.90;;
5674;SDS011;2860;54.284;10.158;2023-03-01T05:54:07;87.10;;;14.23;;
5674;SDS011;2860;54.284;10.158;2023-03-01T05:56:34;177.38;;;15.48;;
5674;SDS011;2860;54.284;10.158;2023-03-01T05:59:01;74.43;;;14.45;;
5674;SDS011;2860;54.284;10.158;2023-03-01T06:01:27;70.95;;;14.65;;
5674;SDS011;2860;54.284;10.158;2023-03-01T06:03:54;91.47;;;15.50;;
5674;SDS011;2860;54.284;10.158;2023-03-01T06:06:20;89.82;;;15.18;;
5674;SDS011;2860;54.284;10.158;2023-03-01T06:08:46;117.88;;;14.40;;
5674;SDS011;2860;54.284;10.158;2023-03-01T06:11:11;165.52;;;15.13;;
5674;SDS011;2860;54.284;10.158;2023-03-01T06:13:37;220.35;;;17.15;;
5674;SDS011;2860;54.284;10.158;2023-03-01T06:16:05;111.25;;;17.42;;
5674;SDS011;2860;54.284;10.158;2023-03-01T06:18:32;87.80;;;14.77;;
5674;SDS011;2860;54.284;10.158;2023-03-01T06:20:57;77.00;;;14.25;;
5674;SDS011;2860;54.284;10.158;2023-03-01T06:23:23;113.05;;;14.50;;
5674;SDS011;2860;54.284;10.158;2023-03-01T06:25:49;168.43;;;14.95;;
5674;SDS011;2860;54.284;10.158;2023-03-01T06:28:14;144.55;;;15.63;;
5674;SDS011;2860;54.284;10.158;2023-03-01T06:30:40;133.73;;;15.65;;
5674;SDS011;2860;54.284;10.158;2023-03-01T06:33:05;143.60;;;16.13;;
5674;SDS011;2860;54.284;10.158;2023-03-01T06:35:31;91.50;;;14.35;;
5674;SDS011;2860;54.284;10.158;2023-03-01T06:37:57;119.70;;;13.88;;
5674;SDS011;2860;54.284;10.158;2023-03-01T06:40:24;163.93;;;15.07;;
5674;SDS011;2860;54.284;10.158;2023-03-01T06:42:50;72.97;;;13.25;;
5674;SDS011;2860;54.284;10.158;2023-03-01T06:45:16;134.77;;;15.57;;
5674;SDS011;2860;54.284;10.158;2023-03-01T06:47:43;59.58;;;14.02;;
5674;SDS011;2860;54.284;10.158;2023-03-01T06:50:09;66.90;;;12.80;;
5674;SDS011;2860;54.284;10.158;2023-03-01T06:52:35;32.80;;;11.13;;
5674;SDS011;2860;54.284;10.158;2023-03-01T06:55:00;85.05;;;13.70;;
5674;SDS011;2860;54.284;10.158;2023-03-01T06:57:26;129.07;;;14.60;;
5674;SDS011;2860;54.284;10.158;2023-03-01T06:59:52;49.47;;;11.95;;
5674;SDS011;2860;54.284;10.158;2023-03-01T07:02:18;168.18;;;20.02;;
5674;SDS011;2860;54.284;10.158;2023-03-01T07:04:44;64.07;;;13.98;;
5674;SDS011;2860;54.284;10.158;2023-03-01T07:07:09;46.78;;;13.70;;
5674;SDS011;2860;54.284;10.158;2023-03-01T07:09:35;43.05;;;12.52;;
5674;SDS011;2860;54.284;10.158;2023-03-01T07:12:01;39.90;;;13.32;;
5674;SDS011;2860;54.284;10.158;2023-03-01T07:14:27;52.92;;;13.15;;
5674;SDS011;2860;54.284;10.158;2023-03-01T07:16:53;43.53;;;12.35;;
5674;SDS011;2860;54.284;10.158;2023-03-01T07:19:19;55.00;;;11.57;;
5674;SDS011;2860;54.284;10.158;2023-03-01T07:21:45;56.35;;;13.07;;
5674;SDS011;2860;54.284;10.158;2023-03-01T07:24:11;71.22;;;12.00;;
5674;SDS011;2860;54.284;10.158;2023-03-01T07:26:36;64.22;;;11.18;;
5674;SDS011;2860;54.284;10.158;2023-03-01T07:29:03;92.13;;;12.98;;
5674;SDS011;2860;54.284;10.158;2023-03-01T07:31:30;67.57;;;10.77;;
5674;SDS011;2860;54.284;10.158;2023-03-01T07:33:56;48.67;;;10.93;;
5674;SDS011;2860;54.284;10.158;2023-03-01T07:36:22;113.03;;;11.88;;
5674;SDS011;2860;54.284;10.158;2023-03-01T07:38:48;40.50;;;9.95;;
5674;SDS011;2860;54.284;10.158;2023-03-01T07:41:14;148.52;;;11.27;;
5674;SDS011;2860;54.284;10.158;2023-03-01T07:43:39;69.22;;;10.77;;
5674;SDS011;2860;54.284;10.158;2023-03-01T07:46:05;63.10;;;10.25;;
5674;SDS011;2860;54.284;10.158;2023-03-01T07:48:32;47.45;;;8.68;;
5674;SDS011;2860;54.284;10.158;2023-03-01T07:51:01;83.88;;;11.63;;
5674;SDS011;2860;54.284;10.158;2023-03-01T07:53:29;78.40;;;13.23;;
5674;SDS011;2860;54.284;10.158;2023-03-01T07:56:06;44.80;;;11.20;;
5674;SDS011;2860;54.284;10.158;2023-03-01T07:58:36;99.13;;;11.52;;
5674;SDS011;2860;54.284;10.158;2023-03-01T08:01:06;37.72;;;10.30;;
5674;SDS011;2860;54.284;10.158;2023-03-01T08:03:33;38.70;;;10.82;;
5674;SDS011;2860;54.284;10.158;2023-03-01T08:06:00;41.92;;;10.65;;
5674;SDS011;2860;54.284;10.158;2023-03-01T08:08:27;50.15;;;11.15;;
5674;SDS011;2860;54.284;10.158;2023-03-01T08:10:55;69.13;;;11.18;;
5674;SDS011;2860;54.284;10.158;2023-03-01T08:13:21;64.45;;;11.35;;
5674;SDS011;2860;54.284;10.158;2023-03-01T08:15:47;36.33;;;11.00;;
5674;SDS011;2860;54.284;10.158;2023-03-01T08:18:14;37.15;;;10.05;;
5674;SDS011;2860;54.284;10.158;2023-03-01T08:20:40;25.30;;;10.38;;
5674;SDS011;2860;54.284;10.158;2023-03-01T08:23:06;19.77;;;10.65;;
5674;SDS011;2860;54.284;10.158;2023-03-01T08:25:31;16.00;;;10.23;;
5674;SDS011;2860;54.284;10.158;2023-03-01T08:27:57;26.40;;;11.23;;
5674;SDS011;2860;54.284;10.158;2023-03-01T08:30:22;30.48;;;10.98;;
5674;SDS011;2860;54.284;10.158;2023-03-01T08:32:49;21.90;;;10.20;;
5674;SDS011;2860;54.284;10.158;2023-03-01T08:35:15;20.58;;;9.07;;
5674;SDS011;2860;54.284;10.158;2023-03-01T08:37:41;13.77;;;10.90;;
5674;SDS011;2860;54.284;10.158;2023-03-01T08:40:07;12.65;;;11.18;;
5674;SDS011;2860;54.284;10.158;2023-03-01T08:42:34;16.63;;;11.35;;
5674;SDS011;2860;54.284;10.158;2023-03-01T08:45:00;24.58;;;10.68;;
5674;SDS011;2860;54.284;10.158;2023-03-01T08:47:26;43.95;;;11.48;;
5674;SDS011;2860;54.284;10.158;2023-03-01T08:49:52;15.00;;;10.52;;
5674;SDS011;2860;54.284;10.158;2023-03-01T08:52:17;14.98;;;11.02;;
5674;SDS011;2860;54.284;10.158;2023-03-01T08:54:44;24.40;;;11.93;;
5674;SDS011;2860;54.284;10.158;2023-03-01T08:57:09;25.35;;;11.65;;
5674;SDS011;2860;54.284;10.158;2023-03-01T08:59:35;26.27;;;12.20;;
5674;SDS011;2860;54.284;10.158;2023-03-01T09:02:02;27.77;;;12.70;;
5674;SDS011;2860;54.284;10.158;2023-03-01T09:04:29;27.33;;;13.65;;
5674;SDS011;2860;54.284;10.158;2023-03-01T09:06:54;32.80;;;12.63;;
5674;SDS011;2860;54.284;10.158;2023-03-01T09:09:20;23.08;;;12.93;;
5674;SDS011;2860;54.284;10.158;2023-03-01T09:11:46;15.07;;;12.05;;
5674;SDS011;2860;54.284;10.158;2023-03-01T09:14:14;22.42;;;11.55;;
5674;SDS011;2860;54.284;10.158;2023-03-01T09:16:40;23.10;;;13.23;;
5674;SDS011;2860;54.284;10.158;2023-03-01T09:19:06;20.60;;;13.23;;
5674;SDS011;2860;54.284;10.158;2023-03-01T09:21:31;24.50;;;12.55;;
5674;SDS011;2860;54.284;10.158;2023-03-01T09:23:57;21.52;;;13.18;;
5674;SDS011;2860;54.284;10.158;2023-03-01T09:26:23;14.82;;;12.63;;
5674;SDS011;2860;54.284;10.158;2023-03-01T09:28:52;16.67;;;13.43;;
5674;SDS011;2860;54.284;10.158;2023-03-01T09:31:19;24.65;;;14.25;;
5674;SDS011;2860;54.284;10.158;2023-03-01T09:33:46;19.58;;;13.23;;
5674;SDS011;2860;54.284;10.158;2023-03-01T09:36:15;18.40;;;14.00;;
5674;SDS011;2860;54.284;10.158;2023-03-01T09:38:42;28.67;;;14.73;;
5674;SDS011;2860;54.284;10.158;2023-03-01T09:44:02;17.40;;;13.55;;
5674;SDS011;2860;54.284;10.158;2023-03-01T09:46:37;19.63;;;12.57;;
5674;SDS011;2860;54.284;10.158;2023-03-01T09:49:11;18.70;;;13.93;;
5674;SDS011;2860;54.284;10.158;2023-03-01T09:51:41;24.00;;;15.85;;
5674;SDS011;2860;54.284;10.158;2023-03-01T09:54:08;19.65;;;14.35;;
5674;SDS011;2860;54.284;10.158;2023-03-01T09:56:43;25.00;;;13.98;;
5674;SDS011;2860;54.284;10.158;2023-03-01T09:59:25;15.05;;;12.52;;
5674;SDS011;2860;54.284;10.158;2023-03-01T10:07:03;27.25;;;13.55;;
5674;SDS011;2860;54.284;10.158;2023-03-01T10:09:40;20.05;;;12.85;;
5674;SDS011;2860;54.284;10.158;2023-03-01T10:12:09;18.52;;;14.38;;
5674;SDS011;2860;54.284;10.158;2023-03-01T10:17:32;19.40;;;13.13;;
5674;SDS011;2860;54.284;10.158;2023-03-01T10:20:22;13.38;;;11.90;;
5674;SDS011;2860;54.284;10.158;2023-03-01T10:22:48;19.15;;;14.52;;
5674;SDS011;2860;54.284;10.158;2023-03-01T10:28:23;14.50;;;12.85;;
5674;SDS011;2860;54.284;10.158;2023-03-01T10:30:54;20.58;;;13.60;;
5674;SDS011;2860;54.284;10.158;2023-03-01T10:33:29;19.13;;;14.20;;
5674;SDS011;2860;54.284;10.158;2023-03-01T10:35:57;16.17;;;12.90;;
5674;SDS011;2860;54.284;10.158;2023-03-01T10:38:22;14.48;;;12.70;;
5674;SDS011;2860;54.284;10.158;2023-03-01T10:43:30;17.00;;;12.98;;
5674;SDS011;2860;54.284;10.158;2023-03-01T10:49:05;15.05;;;12.02;;
5674;SDS011;2860;54.284;10.158;2023-03-01T10:51:37;14.13;;;12.63;;
5674;SDS011;2860;54.284;10.158;2023-03-01T10:54:04;16.15;;;12.52;;
5674;SDS011;2860;54.284;10.158;2023-03-01T10:56:47;13.98;;;12.02;;
5674;SDS011;2860;54.284;10.158;2023-03-01T10:59:48;15.82;;;11.95;;
5674;SDS011;2860;54.284;10.158;2023-03-01T11:04:58;13.02;;;11.50;;
5674;SDS011;2860;54.284;10.158;2023-03-01T11:07:49;13.43;;;11.88;;
5674;SDS011;2860;54.284;10.158;2023-03-01T11:10:18;17.23;;;13.27;;
5674;SDS011;2860;54.284;10.158;2023-03-01T11:12:47;12.98;;;11.57;;
5674;SDS011;2860;54.284;10.158;2023-03-01T11:15:26;14.18;;;10.95;;
5674;SDS011;2860;54.284;10.158;2023-03-01T11:17:53;14.23;;;11.73;;
5674;SDS011;2860;54.284;10.158;2023-03-01T11:20:24;16.25;;;12.25;;
5674;SDS011;2860;54.284;10.158;2023-03-01T11:25:58;11.20;;;10.10;;
5674;SDS011;2860;54.284;10.158;2023-03-01T11:28:25;10.68;;;9.48;;
5674;SDS011;2860;54.284;10.158;2023-03-01T11:30:55;10.23;;;9.23;;
5674;SDS011;2860;54.284;10.158;2023-03-01T11:39:02;10.82;;;8.98;;
5674;SDS011;2860;54.284;10.158;2023-03-01T11:41:36;9.63;;;8.63;;
5674;SDS011;2860;54.284;10.158;2023-03-01T11:44:10;12.18;;;10.18;;
5674;SDS011;2860;54.284;10.158;2023-03-01T11:46:58;11.32;;;10.20;;
5674;SDS011;2860;54.284;10.158;2023-03-01T12:22:07;14.55;;;10.45;;
5674;SDS011;2860;54.284;10.158;2023-03-01T12:25:06;11.52;;;10.48;;
5674;SDS011;2860;54.284;10.158;2023-03-01T12:30:46;19.50;;;11.13;;
5674;SDS011;2860;54.284;10.158;2023-03-01T12:38:59;11.20;;;9.98;;
5674;SDS011;2860;54.284;10.158;2023-03-01T12:50:23;13.55;;;10.15;;
5674;SDS011;2860;54.284;10.158;2023-03-01T12:52:56;14.18;;;11.23;;
5674;SDS011;2860;54.284;10.158;2023-03-01T13:00:36;13.85;;;10.50;;
5674;SDS011;2860;54.284;10.158;2023-03-01T13:03:25;11.80;;;9.45;;
5674;SDS011;2860;54.284;10.158;2023-03-01T13:12:02;11.88;;;10.38;;
5674;SDS011;2860;54.284;10.158;2023-03-01T13:16:56;11.35;;;10.30;;
5674;SDS011;2860;54.284;10.158;2023-03-01T13:19:25;11.93;;;10.55;;
5674;SDS011;2860;54.284;10.158;2023-03-01T13:21:54;12.98;;;9.93;;
5674;SDS011;2860;54.284;10.158;2023-03-01T13:24:28;11.93;;;10.82;;
5674;SDS011;2860;54.284;10.158;2023-03-01T13:29:53;11.27;;;9.73;;
5674;SDS011;2860;54.284;10.158;2023-03-01T13:32:22;14.45;;;11.88;;
5674;SDS011;2860;54.284;10.158;2023-03-01T13:34:50;14.88;;;11.35;;
5674;SDS011;2860;54.284;10.158;2023-03-01T13:37:21;11.80;;;10.60;;
5674;SDS011;2860;54.284;10.158;2023-03-01T13:39:51;11.77;;;10.57;;
5674;SDS011;2860;54.284;10.158;2023-03-01T13:42:30;12.10;;;10.90;;
5674;SDS011;2860;54.284;10.158;2023-03-01T13:44:58;11.57;;;10.43;;
5674;SDS011;2860;54.284;10.158;2023-03-01T13:47:25;12.68;;;11.32;;
5674;SDS011;2860;54.284;10.158;2023-03-01T13:49:59;12.35;;;10.98;;
5674;SDS011;2860;54.284;10.158;2023-03-01T13:55:23;15.00;;;10.95;;
5674;SDS011;2860;54.284;10.158;2023-03-01T13:58:00;12.02;;;10.90;;
5674;SDS011;2860;54.284;10.158;2023-03-01T14:03:20;11.30;;;9.55;;
5674;SDS011;2860;54.284;10.158;2023-03-01T14:08:33;12.38;;;10.88;;
5674;SDS011;2860;54.284;10.158;2023-03-01T14:21:41;13.93;;;12.52;;
5674;SDS011;2860;54.284;10.158;2023-03-01T14:24:14;14.32;;;12.93;;
5674;SDS011;2860;54.284;10.158;2023-03-01T14:26:45;13.27;;;11.73;;
5674;SDS011;2860;54.284;10.158;2023-03-01T14:32:19;14.98;;;12.88;;
5674;SDS011;2860;54.284;10.158;2023-03-01T14:34:49;15.30;;;12.52;;
5674;SDS011;2860;54.284;10.158;2023-03-01T14:39:45;22.00;;;12.85;;
5674;SDS011;2860;54.284;10.158;2023-03-01T14:42:12;17.33;;;12.98;;
5674;SDS011;2860;54.284;10.158;2023-03-01T14:44:40;20.00;;;16.00;;
5674;SDS011;2860;54.284;10.158;2023-03-01T14:47:11;16.63;;;14.27;;
5674;SDS011;2860;54.284;10.158;2023-03-01T14:49:39;21.60;;;14.93;;
5674;SDS011;2860;54.284;10.158;2023-03-01T14:52:07;18.48;;;13.63;;
5674;SDS011;2860;54.284;10.158;2023-03-01T14:54:43;22.55;;;14.68;;
5674;SDS011;2860;54.284;10.158;2023-03-01T14:57:13;19.65;;;14.63;;
5674;SDS011;2860;54.284;10.158;2023-03-01T14:59:50;19.70;;;11.88;;
5674;SDS011;2860;54.284;10.158;2023-03-01T15:02:19;13.48;;;10.75;;
5674;SDS011;2860;54.284;10.158;2023-03-01T15:04:55;18.33;;;12.32;;
5674;SDS011;2860;54.284;10.158;2023-03-01T15:07:22;24.88;;;13.20;;
5674;SDS011;2860;54.284;10.158;2023-03-01T15:09:54;20.42;;;14.13;;
5674;SDS011;2860;54.284;10.158;2023-03-01T15:14:57;23.55;;;17.33;;
5674;SDS011;2860;54.284;10.158;2023-03-01T15:17:31;29.95;;;18.70;;
5674;SDS011;2860;54.284;10.158;2023-03-01T15:20:03;22.92;;;14.52;;
5674;SDS011;2860;54.284;10.158;2023-03-01T15:22:30;20.85;;;14.43;;
5674;SDS011;2860;54.284;10.158;2023-03-01T15:24:56;24.23;;;13.57;;
5674;SDS011;2860;54.284;10.158;2023-03-01T15:27:22;18.33;;;13.77;;
5674;SDS011;2860;54.284;10.158;2023-03-01T15:29:53;28.70;;;15.20;;
5674;SDS011;2860;54.284;10.158;2023-03-01T15:32:27;18.17;;;13.25;;
5674;SDS011;2860;54.284;10.158;2023-03-01T15:34:58;43.90;;;13.68;;
5674;SDS011;2860;54.284;10.158;2023-03-01T15:37:44;16.65;;;12.00;;
5674;SDS011;2860;54.284;10.158;2023-03-01T15:40:22;30.13;;;14.10;;
5674;SDS011;2860;54.284;10.158;2023-03-01T15:43:01;18.48;;;12.50;;
5674;SDS011;2860;54.284;10.158;2023-03-01T15:45:31;22.27;;;14.25;;
5674;SDS011;2860;54.284;10.158;2023-03-01T15:48:04;31.15;;;13.07;;
5674;SDS011;2860;54.284;10.158;2023-03-01T15:50:55;24.23;;;13.95;;
5674;SDS011;2860;54.284;10.158;2023-03-01T15:53:22;22.70;;;14.43;;
5674;SDS011;2860;54.284;10.158;2023-03-01T15:55:48;36.45;;;13.27;;
5674;SDS011;2860;54.284;10.158;2023-03-01T15:58:16;21.60;;;12.88;;
5674;SDS011;2860;54.284;10.158;2023-03-01T16:00:44;51.72;;;16.77;;
5674;SDS011;2860;54.284;10.158;2023-03-01T16:03:10;25.27;;;16.80;;
5674;SDS011;2860;54.284;10.158;2023-03-01T16:05:36;33.88;;;15.90;;
5674;SDS011;2860;54.284;10.158;2023-03-01T16:08:03;38.13;;;17.35;;
5674;SDS011;2860;54.284;10.158;2023-03-01T16:10:31;26.67;;;16.55;;
5674;SDS011;2860;54.284;10.158;2023-03-01T16:12:57;33.65;;;14.93;;
5674;SDS011;2860;54.284;10.158;2023-03-01T16:15:24;30.95;;;13.82;;
5674;SDS011;2860;54.284;10.158;2023-03-01T16:17:53;29.20;;;14.00;;
5674;SDS011;2860;54.284;10.158;2023-03-01T16:20:19;25.55;;;14.48;;
5674;SDS011;2860;54.284;10.158;2023-03-01T16:22:44;36.97;;;12.85;;
5674;SDS011;2860;54.284;10.158;2023-03-01T16:25:11;32.70;;;13.82;;
5674;SDS011;2860;54.284;10.158;2023-03-01T16:27:41;24.33;;;13.05;;
5674;SDS011;2860;54.284;10.158;2023-03-01T16:30:08;32.75;;;13.35;;
5674;SDS011;2860;54.284;10.158;2023-03-01T16:32:37;80.78;;;13.27;;
5674;SDS011;2860;54.284;10.158;2023-03-01T16:35:06;53.60;;;12.10;;
5674;SDS011;2860;54.284;10.158;2023-03-01T16:37:34;25.73;;;12.70;;
5674;SDS011;2860;54.284;10.158;2023-03-01T16:40:00;21.58;;;13.75;;
5674;SDS011;2860;54.284;10.158;2023-03-01T16:42:29;36.72;;;14.77;;
5674;SDS011;2860;54.284;10.158;2023-03-01T16:45:01;24.05;;;13.60;;
5674;SDS011;2860;54.284;10.158;2023-03-01T16:47:27;36.28;;;14.88;;
5674;SDS011;2860;54.284;10.158;2023-03-01T16:49:53;26.13;;;15.30;;
5674;SDS011;2860;54.284;10.158;2023-03-01T16:52:19;36.22;;;16.17;;
5674;SDS011;2860;54.284;10.158;2023-03-01T16:54:46;25.73;;;15.95;;